createdAt,value
2023-08-17T00:00:52.324Z,99.99
2023-08-17T00:01:52.325Z,99.99
2023-08-17T00:02:52.751Z,99.99
2023-08-17T00:03:53.176Z,99.99
2023-08-17T00:04:53.418Z,99.99
2023-08-17T00:05:53.924Z,99.99
2023-08-17T00:06:54.961Z,99.99
2023-08-17T00:07:55.468Z,99.99
2023-08-17T00:08:55.776Z,99.99
2023-08-17T00:09:56.714Z,99.99
2023-08-17T00:10:57.744Z,99.99
2023-08-17T00:11:58.594Z,99.99
2023-08-17T00:12:58.669Z,99.99
2023-08-17T00:13:59.417Z,99.99
2023-08-17T00:14:59.344Z,99.99
2023-08-17T00:16:00.093Z,99.99
2023-08-17T00:17:00.875Z,99.99
2023-08-17T00:18:01.451Z,99.99
2023-08-17T00:19:02.168Z,99.99
2023-08-17T00:20:02.426Z,99.99
2023-08-17T00:21:02.559Z,99.99
2023-08-17T00:22:03.119Z,99.99
2023-08-17T00:23:03.824Z,99.99
2023-08-17T00:24:04.300Z,99.99
2023-08-17T00:25:05.227Z,99.99
2023-08-17T00:26:05.782Z,99.99
2023-08-17T00:27:06.477Z,99.99
2023-08-17T00:28:06.591Z,99.99
2023-08-17T00:29:06.763Z,99.99
2023-08-17T00:30:07.688Z,99.99
2023-08-17T00:31:08.402Z,99.99
2023-08-17T00:32:08.633Z,99.99
2023-08-17T00:33:08.891Z,99.99
2023-08-17T00:34:09.793Z,99.99
2023-08-17T00:35:10.585Z,99.99
2023-08-17T00:36:11.096Z,99.99
2023-08-17T00:37:11.945Z,99.99
2023-08-17T00:38:12.727Z,99.99
2023-08-17T00:39:13.540Z,99.99
2023-08-17T00:40:14.247Z,99.99
2023-08-17T00:41:14.777Z,99.99
2023-08-17T00:42:15.506Z,99.99
2023-08-17T00:43:16.429Z,99.99
2023-08-17T00:44:16.380Z,99.99
2023-08-17T00:45:17.284Z,99.99
2023-08-17T00:46:17.711Z,99.99
2023-08-17T00:48:18.324Z,99.99
2023-08-17T00:49:19.014Z,99.99
2023-08-17T00:50:19.726Z,99.99
2023-08-17T00:51:20.624Z,99.99
2023-08-17T00:52:20.534Z,99.99
2023-08-17T00:53:21.028Z,99.99
2023-08-17T00:54:21.759Z,99.99
2023-08-17T00:55:22.813Z,99.99
2023-08-17T00:56:23.120Z,99.99
2023-08-17T00:57:23.489Z,99.99
2023-08-17T00:58:23.604Z,99.99
2023-08-17T00:59:24.415Z,99.99
2023-08-17T01:00:25.727Z,99.99
2023-08-17T01:01:25.231Z,99.99
2023-08-17T01:02:25.202Z,99.99
2023-08-17T01:03:26.135Z,99.99
2023-08-17T01:04:27.177Z,99.99
2023-08-17T01:05:27.635Z,99.99
2023-08-17T01:06:28.369Z,99.99
2023-08-17T01:07:29.717Z,99.99
2023-08-17T01:08:29.638Z,99.99
2023-08-17T01:09:30.575Z,99.99
2023-08-17T01:10:31.081Z,99.99
2023-08-17T01:11:31.474Z,99.99
2023-08-17T01:12:31.798Z,99.99
2023-08-17T01:13:32.340Z,99.99
2023-08-17T01:14:32.861Z,99.99
2023-08-17T01:15:33.052Z,99.99
2023-08-17T01:16:33.503Z,99.99
2023-08-17T01:17:34.452Z,99.99
2023-08-17T01:18:35.031Z,99.99
2023-08-17T01:19:35.011Z,99.99
2023-08-17T01:20:35.727Z,99.99
2023-08-17T01:21:36.254Z,99.99
2023-08-17T01:22:36.981Z,99.99
2023-08-17T01:23:37.545Z,99.99
2023-08-17T01:24:38.482Z,99.99
2023-08-17T01:25:38.380Z,99.99
2023-08-17T01:26:38.908Z,99.99
2023-08-17T01:27:39.432Z,99.99
2023-08-17T01:28:40.163Z,99.99
2023-08-17T01:29:40.913Z,99.99
2023-08-17T01:30:41.390Z,99.99
2023-08-17T01:31:41.967Z,99.99
2023-08-17T01:32:42.594Z,99.99
2023-08-17T01:33:42.662Z,99.99
2023-08-17T01:34:42.955Z,99.99
2023-08-17T01:35:43.711Z,99.99
2023-08-17T01:36:44.431Z,99.99
2023-08-17T01:37:45.007Z,99.99
2023-08-17T01:38:45.622Z,99.99
2023-08-17T01:39:46.399Z,99.99
2023-08-17T01:40:47.110Z,99.99
2023-08-17T01:41:47.414Z,99.99
2023-08-17T01:42:48.164Z,99.99
2023-08-17T01:43:48.922Z,99.99
2023-08-17T01:44:48.816Z,99.99
2023-08-17T01:45:49.413Z,99.99
2023-08-17T01:46:50.013Z,99.99
2023-08-17T01:47:50.982Z,99.99
2023-08-17T01:48:51.984Z,99.99
2023-08-17T01:49:52.928Z,99.99
2023-08-17T01:50:53.422Z,99.99
2023-08-17T01:51:54.281Z,99.99
2023-08-17T01:52:55.007Z,99.99
2023-08-17T01:53:55.958Z,99.99
2023-08-17T01:54:56.684Z,99.99
2023-08-17T01:55:59.481Z,99.99
2023-08-17T01:56:57.222Z,99.99
2023-08-17T01:57:57.469Z,99.99
2023-08-17T01:58:57.953Z,99.99
2023-08-17T01:59:59.120Z,99.99
2023-08-17T02:00:59.907Z,99.99
2023-08-17T02:02:00.194Z,99.99
2023-08-17T02:03:00.617Z,99.99
2023-08-17T02:04:01.467Z,99.99
2023-08-17T02:05:02.181Z,99.99
2023-08-17T02:06:02.926Z,99.99
2023-08-17T02:07:03.871Z,99.99
2023-08-17T02:08:04.318Z,99.99
2023-08-17T02:09:04.817Z,99.99
2023-08-17T02:10:05.760Z,99.99
2023-08-17T02:11:06.517Z,99.99
2023-08-17T02:12:07.241Z,99.99
2023-08-17T02:13:22.712Z,99.99
2023-08-17T02:14:08.470Z,99.99
2023-08-17T02:15:09.150Z,99.99
2023-08-17T02:16:10.164Z,99.99
2023-08-17T02:17:10.797Z,99.99
2023-08-17T02:18:11.593Z,99.99
2023-08-17T02:19:12.365Z,99.99
2023-08-17T02:20:13.375Z,99.99
2023-08-17T02:21:13.424Z,99.99
2023-08-17T02:22:13.954Z,99.99
2023-08-17T02:23:14.275Z,99.99
2023-08-17T02:24:15.358Z,99.99
2023-08-17T02:25:15.469Z,99.99
2023-08-17T02:26:16.383Z,99.99
2023-08-17T02:27:16.532Z,99.99
2023-08-17T02:28:17.563Z,99.99
2023-08-17T02:29:18.063Z,99.99
2023-08-17T02:30:18.629Z,99.99
2023-08-17T02:31:19.293Z,99.99
2023-08-17T02:32:20.087Z,99.99
2023-08-17T02:33:20.951Z,99.99
2023-08-17T02:34:21.860Z,99.99
2023-08-17T02:35:22.382Z,99.99
2023-08-17T02:36:23.391Z,99.99
2023-08-17T02:37:24.561Z,99.99
2023-08-17T02:38:24.869Z,99.99
2023-08-17T02:39:25.123Z,99.99
2023-08-17T02:40:25.667Z,99.99
2023-08-17T02:41:26.264Z,99.99
2023-08-17T02:42:26.959Z,99.99
2023-08-17T02:43:27.700Z,99.99
2023-08-17T02:44:28.623Z,99.99
2023-08-17T02:45:29.003Z,99.99
2023-08-17T02:46:29.222Z,99.99
2023-08-17T02:47:29.806Z,99.99
2023-08-17T02:48:31.815Z,99.99
2023-08-17T02:49:30.559Z,99.99
2023-08-17T02:50:31.041Z,99.99
2023-08-17T02:51:31.980Z,99.99
2023-08-17T02:52:32.668Z,99.99
2023-08-17T02:53:33.599Z,99.99
2023-08-17T02:54:33.920Z,99.99
2023-08-17T02:55:34.844Z,99.99
2023-08-17T02:56:35.548Z,99.99
2023-08-17T02:57:36.072Z,99.99
2023-08-17T02:58:36.561Z,99.99
2023-08-17T02:59:37.076Z,99.99
2023-08-17T03:00:37.587Z,99.99
2023-08-17T03:01:38.714Z,99.99
2023-08-17T03:02:39.530Z,99.99
2023-08-17T03:03:39.827Z,99.99
2023-08-17T03:04:40.624Z,99.99
2023-08-17T03:05:41.126Z,99.99
2023-08-17T03:06:41.875Z,99.99
2023-08-17T03:07:42.987Z,99.99
2023-08-17T03:08:43.850Z,99.99
2023-08-17T03:09:44.564Z,99.99
2023-08-17T03:10:45.070Z,99.99
2023-08-17T03:11:45.612Z,99.99
2023-08-17T03:12:45.772Z,99.99
2023-08-17T03:13:46.770Z,99.99
2023-08-17T03:14:47.675Z,99.99
2023-08-17T03:15:48.453Z,99.99
2023-08-17T03:16:49.416Z,99.99
2023-08-17T03:17:50.581Z,99.99
2023-08-17T03:18:51.396Z,99.99
2023-08-17T03:19:50.970Z,99.99
2023-08-17T03:20:51.468Z,99.99
2023-08-17T03:21:52.398Z,99.99
2023-08-17T03:22:52.907Z,99.99
2023-08-17T03:23:53.186Z,99.99
2023-08-17T03:24:53.715Z,99.99
2023-08-17T03:25:54.490Z,99.99
2023-08-17T03:26:55.213Z,99.99
2023-08-17T03:27:55.912Z,99.99
2023-08-17T03:28:56.391Z,99.99
2023-08-17T03:29:57.096Z,99.99
2023-08-17T03:30:57.780Z,99.99
2023-08-17T03:32:01.151Z,99.99
2023-08-17T03:32:58.518Z,99.99
2023-08-17T03:33:59.502Z,99.99
2023-08-17T03:34:59.852Z,99.99
2023-08-17T03:36:00.401Z,99.99
2023-08-17T03:37:01.332Z,99.99
2023-08-17T03:38:02.267Z,99.99
2023-08-17T03:39:02.345Z,99.99
2023-08-17T03:40:02.552Z,99.99
2023-08-17T03:41:03.090Z,99.99
2023-08-17T03:42:03.615Z,99.99
2023-08-17T03:43:04.324Z,99.99
2023-08-17T03:44:05.049Z,99.99
2023-08-17T03:45:05.575Z,99.99
2023-08-17T03:46:05.642Z,99.99
2023-08-17T03:47:05.819Z,99.99
2023-08-17T03:48:06.605Z,99.99
2023-08-17T03:49:07.378Z,99.99
2023-08-17T03:50:07.919Z,99.99
2023-08-17T03:51:08.433Z,99.99
2023-08-17T03:52:08.779Z,99.99
2023-08-17T03:53:09.483Z,99.99
2023-08-17T03:54:10.018Z,99.99
2023-08-17T03:55:10.568Z,99.99
2023-08-17T03:56:11.332Z,99.93
2023-08-17T03:57:12.040Z,99.93
2023-08-17T03:58:12.347Z,99.99
2023-08-17T03:59:13.438Z,99.99
2023-08-17T04:00:14.183Z,99.99
2023-08-17T04:01:15.050Z,99.99
2023-08-17T04:02:15.251Z,99.99
2023-08-17T04:03:15.584Z,99.99
2023-08-17T04:04:16.662Z,99.99
2023-08-17T04:05:16.967Z,99.99
2023-08-17T04:06:17.704Z,99.99
2023-08-17T04:07:18.440Z,99.99
2023-08-17T04:08:19.116Z,99.99
2023-08-17T04:09:19.528Z,99.99
2023-08-17T04:10:20.214Z,99.99
2023-08-17T04:11:20.927Z,99.99
2023-08-17T04:12:21.851Z,99.99
2023-08-17T04:13:22.385Z,99.99
2023-08-17T04:14:25.429Z,99.99
2023-08-17T04:15:23.142Z,99.99
2023-08-17T04:16:23.981Z,99.99
2023-08-17T04:17:24.676Z,99.99
2023-08-17T04:18:24.553Z,99.99
2023-08-17T04:19:24.879Z,99.99
2023-08-17T04:20:25.650Z,99.99
2023-08-17T04:21:26.330Z,99.99
2023-08-17T04:22:26.168Z,99.99
2023-08-17T04:23:26.722Z,99.99
2023-08-17T04:24:27.297Z,99.99
2023-08-17T04:25:28.432Z,99.99
2023-08-17T04:26:28.792Z,99.99
2023-08-17T04:27:30.127Z,99.99
2023-08-17T04:28:30.031Z,99.99
2023-08-17T04:29:30.683Z,99.99
2023-08-17T04:30:31.180Z,99.99
2023-08-17T04:31:32.022Z,99.99
2023-08-17T04:32:33.099Z,99.99
2023-08-17T04:33:34.011Z,99.99
2023-08-17T04:34:34.758Z,99.99
2023-08-17T04:35:35.296Z,99.99
2023-08-17T04:36:36.216Z,99.99
2023-08-17T04:37:37.168Z,99.99
2023-08-17T04:38:38.180Z,99.99
2023-08-17T04:39:38.507Z,99.99
2023-08-17T04:40:39.204Z,99.99
2023-08-17T04:41:39.713Z,99.99
2023-08-17T04:42:40.233Z,99.99
2023-08-17T04:43:40.952Z,99.99
2023-08-17T04:44:41.927Z,99.99
2023-08-17T04:45:42.250Z,99.99
2023-08-17T04:46:42.965Z,99.99
2023-08-17T04:47:43.569Z,99.99
2023-08-17T04:48:44.570Z,99.99
2023-08-17T04:49:45.464Z,99.99
2023-08-17T04:50:45.780Z,99.99
2023-08-17T04:51:46.283Z,99.99
2023-08-17T04:52:46.861Z,99.99
2023-08-17T04:53:47.409Z,99.99
2023-08-17T04:54:47.951Z,99.99
2023-08-17T04:55:48.656Z,99.99
2023-08-17T04:56:49.376Z,99.99
2023-08-17T04:57:49.482Z,99.99
2023-08-17T04:58:50.250Z,99.99
2023-08-17T04:59:50.895Z,99.99
2023-08-17T05:00:51.468Z,99.99
2023-08-17T05:01:52.404Z,99.99
2023-08-17T05:02:53.589Z,99.99
2023-08-17T05:03:53.470Z,99.99
2023-08-17T05:04:53.345Z,99.99
2023-08-17T05:05:54.259Z,99.99
2023-08-17T05:06:55.045Z,99.99
2023-08-17T05:07:55.959Z,99.99
2023-08-17T05:08:56.453Z,99.99
2023-08-17T05:09:57.261Z,99.99
2023-08-17T05:10:58.202Z,99.99
2023-08-17T05:11:59.038Z,99.99
2023-08-17T05:13:00.231Z,99.99
2023-08-17T05:14:00.151Z,99.99
2023-08-17T05:15:01.121Z,99.99
2023-08-17T05:16:01.350Z,99.99
2023-08-17T05:17:02.463Z,99.99
2023-08-17T05:18:03.267Z,99.99
2023-08-17T05:19:03.459Z,99.99
2023-08-17T05:20:04.512Z,99.99
2023-08-17T05:21:04.824Z,99.99
2023-08-17T05:22:06.259Z,99.99
2023-08-17T05:23:06.804Z,99.99
2023-08-17T05:24:07.711Z,99.99
2023-08-17T05:25:08.029Z,99.99
2023-08-17T05:26:08.952Z,99.99
2023-08-17T05:27:09.715Z,99.99
2023-08-17T05:28:10.443Z,99.99
2023-08-17T05:29:10.955Z,99.99
2023-08-17T05:30:11.808Z,99.99
2023-08-17T05:31:12.565Z,99.99
2023-08-17T05:32:12.734Z,99.99
2023-08-17T05:33:13.714Z,99.69
2023-08-17T05:34:13.865Z,99.74
2023-08-17T05:35:14.895Z,99.64
2023-08-17T05:36:14.949Z,99.99
2023-08-17T05:37:15.665Z,99.93
2023-08-17T05:38:16.080Z,99.74
2023-08-17T05:39:16.635Z,99.35
2023-08-17T05:40:17.900Z,99.16
2023-08-17T05:41:18.464Z,99.26
2023-08-17T05:42:19.030Z,99.06
2023-08-17T05:43:19.950Z,99.06
2023-08-17T05:44:19.893Z,99.35
2023-08-17T05:45:21.038Z,99.16
2023-08-17T05:46:21.611Z,98.77
2023-08-17T05:47:22.522Z,98.77
2023-08-17T05:48:22.823Z,98.1
2023-08-17T05:49:23.778Z,98.1
2023-08-17T05:50:24.256Z,97.91
2023-08-17T05:51:24.762Z,97.86
2023-08-17T05:52:25.277Z,98.05
2023-08-17T05:53:26.258Z,98.05
2023-08-17T05:54:26.747Z,97.57
2023-08-17T05:55:27.477Z,97.57
2023-08-17T05:56:27.989Z,97.86
2023-08-17T05:57:28.841Z,97.86
2023-08-17T05:58:29.140Z,98.34
2023-08-17T05:59:29.809Z,98.44
2023-08-17T06:00:30.866Z,98.34
2023-08-17T06:01:31.515Z,98.44
2023-08-17T06:02:32.337Z,98.44
2023-08-17T06:03:32.721Z,97.62
2023-08-17T06:04:32.911Z,97.24
2023-08-17T06:05:33.105Z,96.94
2023-08-17T06:06:33.847Z,96.94
2023-08-17T06:07:34.619Z,96.27
2023-08-17T06:08:35.564Z,96.75
2023-08-17T06:09:36.530Z,96.56
2023-08-17T06:10:36.955Z,96.27
2023-08-17T06:11:37.683Z,95.59
2023-08-17T06:12:38.571Z,95.79
2023-08-17T06:13:38.890Z,95.89
2023-08-17T06:14:39.442Z,95.98
2023-08-17T06:15:40.594Z,95.11
2023-08-17T06:16:41.340Z,95.02
2023-08-17T06:17:42.496Z,95.4
2023-08-17T06:18:43.145Z,95.59
2023-08-17T06:19:43.844Z,95.4
2023-08-17T06:20:44.981Z,95.59
2023-08-17T06:21:45.290Z,95.21
2023-08-17T06:22:46.180Z,95.45
2023-08-17T06:23:46.471Z,95.36
2023-08-17T06:24:47.203Z,93.43
2023-08-17T06:25:47.749Z,93.66
2023-08-17T06:26:48.877Z,93.62
2023-08-17T06:27:49.201Z,93.13
2023-08-17T06:28:49.707Z,92.85
2023-08-17T06:29:50.479Z,93.43
2023-08-17T06:30:50.825Z,93.62
2023-08-17T06:31:51.693Z,93.71
2023-08-17T06:32:52.138Z,93.81
2023-08-17T06:33:53.084Z,93.33
2023-08-17T06:34:53.810Z,93.23
2023-08-17T06:35:54.809Z,92.65
2023-08-17T06:36:55.734Z,92.94
2023-08-17T06:37:56.059Z,92.8
2023-08-17T06:38:57.028Z,92.56
2023-08-17T06:39:57.570Z,92.5
2023-08-17T06:40:58.613Z,92.75
2023-08-17T06:41:59.158Z,92.32
2023-08-17T06:42:59.876Z,92.6
2023-08-17T06:44:00.382Z,92.32
2023-08-17T06:45:01.309Z,92.22
2023-08-17T06:46:02.098Z,91.69
2023-08-17T06:47:01.973Z,91.74
2023-08-17T06:48:03.050Z,92.02
2023-08-17T06:49:03.122Z,91.69
2023-08-17T06:50:03.907Z,91.83
2023-08-17T06:51:04.549Z,92.7
2023-08-17T06:52:05.537Z,92.6
2023-08-17T06:53:06.111Z,92.41
2023-08-17T06:54:06.891Z,92.7
2023-08-17T06:55:06.862Z,92.6
2023-08-17T06:56:08.533Z,91.93
2023-08-17T06:57:08.255Z,90.72
2023-08-17T06:58:08.617Z,89.95
2023-08-17T06:59:09.340Z,89.12
2023-08-17T07:00:09.466Z,89.12
2023-08-17T07:01:10.252Z,87.58
2023-08-17T07:02:11.305Z,87.91
2023-08-17T07:03:10.967Z,87.43
2023-08-17T07:04:11.617Z,87.13
2023-08-17T07:05:12.389Z,88.15
2023-08-17T07:06:13.394Z,86.6
2023-08-17T07:07:14.135Z,84.8
2023-08-17T07:08:14.567Z,83.4
2023-08-17T07:09:15.249Z,83.15
2023-08-17T07:10:15.745Z,81.83
2023-08-17T07:11:16.233Z,81.77
2023-08-17T07:12:16.546Z,82.55
2023-08-17T07:13:17.270Z,80.65
2023-08-17T07:14:18.135Z,78.81
2023-08-17T07:15:18.234Z,79.43
2023-08-17T07:16:18.894Z,77.72
2023-08-17T07:17:19.516Z,77.34
2023-08-17T07:18:20.426Z,77.47
2023-08-17T07:19:25.426Z,76.69
2023-08-17T07:20:23.273Z,76.21
2023-08-17T07:21:23.630Z,74.69
2023-08-17T07:22:24.416Z,75.14
2023-08-17T07:23:25.476Z,76.11
2023-08-17T07:24:26.412Z,75.88
2023-08-17T07:25:26.949Z,76.75
2023-08-17T07:26:27.893Z,76.65
2023-08-17T07:27:28.686Z,76.46
2023-08-17T07:28:29.037Z,77.39
2023-08-17T07:29:29.764Z,78.07
2023-08-17T07:30:30.287Z,78.36
2023-08-17T07:31:31.024Z,79.14
2023-08-17T07:32:31.092Z,79.43
2023-08-17T07:33:32.265Z,78.94
2023-08-17T07:34:33.024Z,77.39
2023-08-17T07:35:33.913Z,77.78
2023-08-17T07:36:34.132Z,77.04
2023-08-17T07:37:35.389Z,77.34
2023-08-17T07:38:35.369Z,77.34
2023-08-17T07:39:36.351Z,78.02
2023-08-17T07:40:37.088Z,77.34
2023-08-17T07:41:37.428Z,77.04
2023-08-17T07:42:38.876Z,79.43
2023-08-17T07:43:38.909Z,79.76
2023-08-17T07:44:39.437Z,79.18
2023-08-17T07:45:40.644Z,77.29
2023-08-17T07:46:41.100Z,76.62
2023-08-17T07:47:41.893Z,77.98
2023-08-17T07:48:42.970Z,79
2023-08-17T07:49:43.107Z,80.07
2023-08-17T07:50:44.214Z,78.33
2023-08-17T07:51:45.268Z,77.65
2023-08-17T07:52:45.909Z,79.1
2023-08-17T07:53:47.069Z,79.78
2023-08-17T07:54:48.079Z,79.2
2023-08-17T07:55:49.237Z,79.68
2023-08-17T07:56:49.011Z,79.97
2023-08-17T07:57:49.769Z,79.3
2023-08-17T07:58:50.155Z,79.39
2023-08-17T07:59:51.086Z,80.17
2023-08-17T08:00:52.232Z,81.23
2023-08-17T08:01:53.117Z,81.52
2023-08-17T08:02:53.987Z,81.13
2023-08-17T08:03:54.114Z,81.13
2023-08-17T08:04:55.095Z,81.04
2023-08-17T08:05:55.243Z,81.04
2023-08-17T08:06:56.032Z,81.04
2023-08-17T08:07:56.945Z,80.8
2023-08-17T08:08:57.954Z,83.13
2023-08-17T08:09:58.746Z,83.33
2023-08-17T08:10:59.746Z,82.35
2023-08-17T08:12:00.386Z,82.17
2023-08-17T08:13:00.682Z,81.29
2023-08-17T08:14:01.456Z,81.48
2023-08-17T08:15:01.637Z,81.29
2023-08-17T08:16:02.691Z,80.8
2023-08-17T08:17:02.766Z,81.39
2023-08-17T08:18:02.971Z,82.75
2023-08-17T08:19:02.952Z,82.75
2023-08-17T08:20:03.799Z,82.98
2023-08-17T08:21:05.041Z,81.04
2023-08-17T08:22:05.597Z,79.2
2023-08-17T08:23:06.112Z,78.91
2023-08-17T08:24:14.157Z,80.17
2023-08-17T08:25:07.417Z,79.91
2023-08-17T08:26:08.128Z,79.14
2023-08-17T08:27:09.206Z,80.98
2023-08-17T08:28:09.918Z,80.11
2023-08-17T08:29:10.659Z,79.57
2023-08-17T08:30:11.642Z,80.25
2023-08-17T08:31:12.411Z,79.96
2023-08-17T08:32:12.776Z,78.02
2023-08-17T08:33:13.763Z,76.6
2023-08-17T08:34:14.029Z,74.95
2023-08-17T08:35:15.015Z,74.95
2023-08-17T08:36:15.752Z,75.27
2023-08-17T08:37:15.947Z,75.31
2023-08-17T08:38:16.843Z,75.02
2023-08-17T08:39:17.651Z,74.57
2023-08-17T08:40:18.637Z,74.57
2023-08-17T08:41:19.641Z,74.57
2023-08-17T08:42:19.795Z,74.34
2023-08-17T08:43:20.738Z,74.92
2023-08-17T08:44:21.061Z,75.31
2023-08-17T08:45:21.989Z,75.05
2023-08-17T08:46:22.964Z,74.57
2023-08-17T08:47:23.929Z,74.51
2023-08-17T08:48:24.397Z,72.66
2023-08-17T08:49:25.203Z,71.82
2023-08-17T08:50:25.873Z,71.76
2023-08-17T08:51:26.836Z,72.96
2023-08-17T08:52:27.802Z,72.71
2023-08-17T08:53:28.769Z,71.57
2023-08-17T08:54:28.703Z,69.65
2023-08-17T08:55:29.234Z,67.61
2023-08-17T08:56:30.060Z,66.37
2023-08-17T08:57:31.081Z,66.11
2023-08-17T08:58:30.945Z,65.75
2023-08-17T08:59:31.859Z,64.68
2023-08-17T09:00:32.590Z,65.1
2023-08-17T09:01:33.251Z,64.9
2023-08-17T09:02:33.482Z,65.1
2023-08-17T09:03:34.262Z,63.93
2023-08-17T09:04:35.023Z,64.03
2023-08-17T09:05:35.489Z,65.33
2023-08-17T09:06:36.439Z,63.57
2023-08-17T09:07:37.307Z,63.18
2023-08-17T09:08:38.187Z,63.08
2023-08-17T09:09:38.913Z,62.16
2023-08-17T09:10:44.176Z,64.19
2023-08-17T09:11:44.649Z,64
2023-08-17T09:14:49.413Z,63.44
2023-08-17T09:15:49.629Z,63.83
2023-08-17T09:16:50.258Z,63.64
2023-08-17T09:17:51.432Z,63.05
2023-08-17T09:18:51.642Z,63.34
2023-08-17T09:19:51.592Z,63.15
2023-08-17T09:20:53.108Z,62.36
2023-08-17T09:21:56.293Z,62.36
2023-08-17T09:23:58.827Z,61.25
2023-08-17T09:24:54.086Z,59.91
2023-08-17T09:25:54.645Z,58.47
2023-08-17T09:26:55.622Z,57.52
2023-08-17T09:27:55.706Z,57.42
2023-08-17T09:28:56.853Z,57.1
2023-08-17T09:29:57.870Z,56.12
2023-08-17T09:30:59.004Z,56.12
2023-08-17T09:31:59.671Z,57.91
2023-08-17T09:32:59.942Z,56.24
2023-08-17T09:34:00.445Z,54.87
2023-08-17T09:35:01.049Z,55.29
2023-08-17T09:36:04.638Z,55.39
2023-08-17T09:37:03.913Z,55.78
2023-08-17T09:38:01.702Z,54.93
2023-08-17T09:39:02.355Z,54.07
2023-08-17T09:40:02.912Z,54.46
2023-08-17T09:41:04.041Z,55.27
2023-08-17T09:42:05.010Z,53.44
2023-08-17T09:43:05.530Z,50.51
2023-08-17T09:44:06.344Z,52.15
2023-08-17T09:45:06.701Z,53.95
2023-08-17T09:46:07.517Z,51
2023-08-17T09:47:07.920Z,52.5
2023-08-17T09:48:09.347Z,51.03
2023-08-17T09:49:09.284Z,50.95
2023-08-17T09:50:09.865Z,51.45
2023-08-17T09:51:10.952Z,49.3
2023-08-17T09:52:11.972Z,50.68
2023-08-17T09:53:12.842Z,49.52
2023-08-17T09:54:13.397Z,49.52
2023-08-17T09:55:14.171Z,49.92
2023-08-17T09:56:17.504Z,48.64
2023-08-17T09:57:16.091Z,50.02
2023-08-17T09:58:16.629Z,50.12
2023-08-17T09:59:17.412Z,49.52
2023-08-17T10:00:17.957Z,49.23
2023-08-17T10:01:18.988Z,50.51
2023-08-17T10:02:19.010Z,51.3
2023-08-17T10:03:19.344Z,52.68
2023-08-17T10:04:20.335Z,53.17
2023-08-17T10:05:22.402Z,52.78
2023-08-17T10:06:26.473Z,50.54
2023-08-17T10:07:21.445Z,48.76
2023-08-17T10:08:22.289Z,46.89
2023-08-17T10:09:22.858Z,50.61
2023-08-17T10:10:23.794Z,50.21
2023-08-17T10:11:24.363Z,50.02
2023-08-17T10:12:25.550Z,46.89
2023-08-17T10:13:26.276Z,50.83
2023-08-17T10:14:26.776Z,47.58
2023-08-17T10:15:27.898Z,45.51
2023-08-17T10:16:34.933Z,46.18
2023-08-17T10:17:28.826Z,46.67
2023-08-17T10:18:29.898Z,46.77
2023-08-17T10:19:30.854Z,46.97
2023-08-17T10:20:31.407Z,47.06
2023-08-17T10:21:32.322Z,46.65
2023-08-17T10:22:32.724Z,47.53
2023-08-17T10:24:32.815Z,48.61
2023-08-17T10:25:33.803Z,46.33
2023-08-17T10:26:34.499Z,45.15
2023-08-17T10:27:34.625Z,46.03
2023-08-17T10:28:35.371Z,48.39
2023-08-17T10:29:36.295Z,46.53
2023-08-17T10:30:36.832Z,46.82
2023-08-17T10:31:37.665Z,47.58
2023-08-17T10:32:38.047Z,46.31
2023-08-17T10:33:38.850Z,49.55
2023-08-17T10:34:39.827Z,51.52
2023-08-17T10:35:40.837Z,52.31
2023-08-17T10:36:40.963Z,46.6
2023-08-17T10:37:41.899Z,46.6
2023-08-17T10:38:41.880Z,47.49
2023-08-17T10:39:42.415Z,47.47
2023-08-17T10:40:43.475Z,48.84
2023-08-17T10:41:43.841Z,48.43
2023-08-17T10:42:44.596Z,48.6
2023-08-17T10:43:44.623Z,49.36
2023-08-17T10:44:45.426Z,50.83
2023-08-17T10:45:46.454Z,50.54
2023-08-17T10:46:47.207Z,49.55
2023-08-17T10:47:47.989Z,50.93
2023-08-17T10:48:48.971Z,49.85
2023-08-17T10:49:49.891Z,49.95
2023-08-17T10:50:50.687Z,50.34
2023-08-17T10:51:51.643Z,49.48
2023-08-17T10:52:54.584Z,49.85
2023-08-17T10:54:53.361Z,50.95
2023-08-17T10:55:58.433Z,50.46
2023-08-17T10:56:53.554Z,50.66
2023-08-17T10:57:54.526Z,53.31
2023-08-17T10:58:55.501Z,51.45
2023-08-17T10:59:56.034Z,53.04
2023-08-17T11:00:56.999Z,51.57
2023-08-17T11:01:58.163Z,49.7
2023-08-17T11:02:58.283Z,49.48
2023-08-17T11:03:59.033Z,50.56
2023-08-17T11:04:59.272Z,50.85
2023-08-17T11:06:00.300Z,50.85
2023-08-17T11:07:01.325Z,50.34
2023-08-17T11:08:01.592Z,50.44
2023-08-17T11:09:02.985Z,50.81
2023-08-17T11:10:03.430Z,51.96
2023-08-17T11:11:03.278Z,51.96
2023-08-17T11:12:04.070Z,53.33
2023-08-17T11:13:04.902Z,52.55
2023-08-17T11:14:05.531Z,52.55
2023-08-17T11:15:06.082Z,52.33
2023-08-17T11:16:10.333Z,52.42
2023-08-17T11:17:12.007Z,53.18
2023-08-17T11:18:09.671Z,52.89
2023-08-17T11:19:13.286Z,52.79
2023-08-17T11:20:14.971Z,53.25
2023-08-17T11:21:10.341Z,52.76
2023-08-17T11:22:10.843Z,53.94
2023-08-17T11:23:11.125Z,52.96
2023-08-17T11:24:11.556Z,53.35
2023-08-17T11:25:12.113Z,51.98
2023-08-17T11:26:13.183Z,53.06
2023-08-17T11:27:12.968Z,54.33
2023-08-17T11:28:13.750Z,55.11
2023-08-17T11:29:14.687Z,56.29
2023-08-17T11:30:15.438Z,57.88
2023-08-17T11:31:17.327Z,54.85
2023-08-17T11:32:17.335Z,53.77
2023-08-17T11:33:17.839Z,54.28
2023-08-17T11:34:18.761Z,54.09
2023-08-17T11:35:18.719Z,52.52
2023-08-17T11:36:19.554Z,52.91
2023-08-17T11:37:20.708Z,53.11
2023-08-17T11:38:20.041Z,52.03
2023-08-17T11:39:20.867Z,52.98
2023-08-17T11:40:21.401Z,52.79
2023-08-17T11:41:24.288Z,54.75
2023-08-17T11:42:26.014Z,52.3
2023-08-17T11:43:27.176Z,52.98
2023-08-17T11:45:27.554Z,51.71
2023-08-17T11:46:28.841Z,51.22
2023-08-17T11:47:25.311Z,51.03
2023-08-17T11:48:26.192Z,50.63
2023-08-17T11:49:27.039Z,50.73
2023-08-17T11:50:27.734Z,52.59
2023-08-17T11:51:28.280Z,52.98
2023-08-17T11:52:29.804Z,52.1
2023-08-17T11:53:29.434Z,52.2
2023-08-17T11:54:30.033Z,51.61
2023-08-17T11:55:30.320Z,51.9
2023-08-17T11:56:31.062Z,53.96
2023-08-17T11:57:31.010Z,56.21
2023-08-17T11:58:31.953Z,54.97
2023-08-17T11:59:32.298Z,52.03
2023-08-17T12:00:33.433Z,56.57
2023-08-17T12:01:33.700Z,55.49
2023-08-17T12:02:34.345Z,54.31
2023-08-17T12:03:34.321Z,52.57
2023-08-17T12:04:34.768Z,51.89
2023-08-17T12:05:35.719Z,52.4
2023-08-17T12:06:36.507Z,53.87
2023-08-17T12:07:37.658Z,50.73
2023-08-17T12:08:37.577Z,48.77
2023-08-17T12:09:37.832Z,53.28
2023-08-17T12:10:38.775Z,50.24
2023-08-17T12:11:38.988Z,50.34
2023-08-17T12:12:39.495Z,49.75
2023-08-17T12:13:40.358Z,48.55
2023-08-17T12:14:40.835Z,49.33
2023-08-17T12:15:41.271Z,49.33
2023-08-17T12:16:42.193Z,48.33
2023-08-17T12:17:43.030Z,49.02
2023-08-17T12:18:43.942Z,49.6
2023-08-17T12:19:44.905Z,50.17
2023-08-17T12:20:46.757Z,50.85
2023-08-17T12:21:46.678Z,51.25
2023-08-17T12:22:47.489Z,50.56
2023-08-17T12:23:48.104Z,50.56
2023-08-17T12:24:48.537Z,57.52
2023-08-17T12:25:49.002Z,56.57
2023-08-17T12:26:51.115Z,52.35
2023-08-17T12:27:50.766Z,46.47
2023-08-17T12:28:52.032Z,48.16
2023-08-17T12:29:52.782Z,50.42
2023-08-17T12:30:53.768Z,53.65
2023-08-17T12:31:53.911Z,54.56
2023-08-17T12:32:56.063Z,53.87
2023-08-17T12:33:55.377Z,56.42
2023-08-17T12:34:56.440Z,57.21
2023-08-17T12:35:57.620Z,53.9
2023-08-17T12:36:57.925Z,55.86
2023-08-17T12:37:58.450Z,52.84
2023-08-17T12:38:59.575Z,50.68
2023-08-17T12:40:00.522Z,48.13
2023-08-17T12:41:06.722Z,46.88
2023-08-17T12:42:02.265Z,50.9
2023-08-17T12:43:02.606Z,50.68
2023-08-17T12:44:03.845Z,52.35
2023-08-17T12:45:05.878Z,56.28
2023-08-17T12:46:05.304Z,57.07
2023-08-17T12:47:05.304Z,55.33
2023-08-17T12:48:05.878Z,53.85
2023-08-17T12:49:06.822Z,54.17
2023-08-17T12:50:08.051Z,54.17
2023-08-17T12:51:10.454Z,52.8
2023-08-17T12:52:08.313Z,55.45
2023-08-17T12:53:08.824Z,51.91
2023-08-17T12:54:09.568Z,53.19
2023-08-17T12:55:10.071Z,55.68
2023-08-17T12:56:11.104Z,53.41
2023-08-17T12:57:16.250Z,48.79
2023-08-17T12:58:12.209Z,47.19
2023-08-17T12:59:13.168Z,51.22
2023-08-17T13:00:13.093Z,51.59
2023-08-17T13:01:14.325Z,50.81
2023-08-17T13:02:15.102Z,47.93
2023-08-17T13:03:19.149Z,49.31
2023-08-17T13:04:17.304Z,52.03
2023-08-17T13:05:17.795Z,48.18
2023-08-17T13:06:18.713Z,47.3
2023-08-17T13:07:19.342Z,50.51
2023-08-17T13:08:20.265Z,54.63
2023-08-17T13:09:20.633Z,54.63
2023-08-17T13:10:21.454Z,53.19